Time;durP1;ratioP1;P1;durP2;ratioP2;P2;SDS_P1;SDS_P2;PMS_P1;PMS_P2;Temp;Humidity;BMP_temperature;BMP_pressure;BME280_temperature;BME280_humidity;BME280_pressure;Samples;Min_cycle;Max_cycle;Signal;HPM_P1;HPM_P2
2023/06/21 03:55:47;;;;;;;11.80;7.90;;;;;;;19.98;100.00;100374.75;5885796;28;20118;-85
2023/06/21 03:58:51;;;;;;;9.98;7.55;;;;;;;19.96;100.00;100374.19;5254731;33;33867;-85
2023/06/21 04:01:54;;;;;;;9.82;7.97;;;;;;;20.04;100.00;100382.03;5222272;33;33905;-85
2023/06/21 04:04:59;;;;;;;11.00;7.85;;;;;;;20.12;100.00;100381.62;5257932;33;34881;-85
2023/06/21 04:08:02;;;;;;;11.77;8.05;;;;;;;20.25;100.00;100386.00;5246927;33;33803;-85
2023/06/21 04:11:08;;;;;;;10.50;7.80;;;;;;;20.30;100.00;100392.44;5256384;33;34524;-85
2023/06/21 04:14:11;;;;;;;11.32;7.97;;;;;;;20.44;100.00;100390.22;5245465;33;34150;-85
2023/06/21 04:17:14;;;;;;;9.57;7.57;;;;;;;20.38;100.00;100391.19;5230689;33;34014;-85
2023/06/21 04:20:17;;;;;;;10.68;7.20;;;;;;;20.39;100.00;100387.41;5254478;33;33727;-85
2023/06/21 04:23:20;;;;;;;10.57;6.95;;;;;;;20.41;100.00;100389.87;5241882;33;34573;-85
2023/06/21 04:26:23;;;;;;;10.98;7.95;;;;;;;20.38;100.00;100392.03;5242301;33;33700;-85
2023/06/21 04:29:27;;;;;;;9.10;7.72;;;;;;;20.50;100.00;100400.19;5243121;33;33912;-85
2023/06/21 04:32:32;;;;;;;10.20;7.15;;;;;;;20.64;100.00;100410.88;5247019;33;33727;-85
2023/06/21 04:35:35;;;;;;;11.15;7.80;;;;;;;20.83;99.05;100428.78;5241989;33;35086;-85
2023/06/21 04:38:38;;;;;;;13.48;7.43;;;;;;;20.98;98.73;100436.47;5241292;33;33878;-85
2023/06/21 04:41:41;;;;;;;12.13;7.32;;;;;;;21.10;96.81;100434.50;5257943;33;33957;-85
2023/06/21 04:44:48;;;;;;;12.57;7.60;;;;;;;21.15;95.30;100442.81;5249701;33;35366;-85
2023/06/21 04:47:52;;;;;;;11.30;7.55;;;;;;;21.12;94.52;100447.91;5241236;33;35081;-85
2023/06/21 04:50:56;;;;;;;9.85;7.37;;;;;;;21.09;94.24;100449.25;5241361;33;35129;-85
2023/06/21 04:53:59;;;;;;;11.48;7.65;;;;;;;21.18;94.29;100457.91;5241435;33;34600;-85
2023/06/21 04:57:04;;;;;;;10.63;7.75;;;;;;;21.28;94.96;100461.63;5230997;33;33871;-85
2023/06/21 05:00:08;;;;;;;11.38;7.45;;;;;;;21.48;92.39;100463.94;5229657;33;34962;-90
2023/06/21 05:03:10;;;;;;;10.90;7.40;;;;;;;21.73;90.11;100457.22;5229653;33;33820;-90
2023/06/21 05:06:14;;;;;;;10.43;7.35;;;;;;;21.92;88.41;100464.09;5241585;33;34549;-87
2023/06/21 05:09:17;;;;;;;12.18;7.45;;;;;;;21.91;87.59;100461.63;5240942;33;34653;-85
2023/06/21 05:12:20;;;;;;;12.45;7.28;;;;;;;21.77;87.94;100455.66;5229752;33;33707;-86
2023/06/21 05:15:23;;;;;;;8.82;7.40;;;;;;;21.88;87.30;100441.03;5241011;33;33737;-86
2023/06/21 05:18:26;;;;;;;10.98;8.32;;;;;;;21.89;85.21;100441.84;5240828;33;33812;-85
2023/06/21 05:21:29;;;;;;;8.70;7.30;;;;;;;21.99;84.23;100446.63;5245162;33;34135;-86
2023/06/21 05:24:32;;;;;;;11.30;7.72;;;;;;;22.20;84.07;100437.69;5249764;33;34385;-86
2023/06/21 05:27:34;;;;;;;11.55;7.75;;;;;;;22.32;83.58;100432.91;5228524;33;34111;-86
2023/06/21 05:30:38;;;;;;;10.38;7.72;;;;;;;22.44;82.02;100438.25;5257221;33;34195;-86
2023/06/21 05:33:41;;;;;;;13.07;8.10;;;;;;;22.55;81.62;100429.06;5225319;33;31823;-86
2023/06/21 05:36:44;;;;;;;11.25;8.02;;;;;;;22.71;81.48;100438.31;5230740;33;33817;-86
2023/06/21 05:39:47;;;;;;;10.43;7.70;;;;;;;22.85;80.33;100436.81;5230098;33;35073;-86
2023/06/21 05:42:50;;;;;;;11.10;7.97;;;;;;;23.02;78.47;100446.91;5229570;33;34141;-86
2023/06/21 05:45:53;;;;;;;11.30;7.60;;;;;;;23.21;77.46;100448.19;5240808;33;33745;-86
2023/06/21 05:48:57;;;;;;;11.82;7.72;;;;;;;23.33;74.86;100450.78;5241526;33;33496;-86
2023/06/21 05:51:59;;;;;;;8.52;7.57;;;;;;;23.51;73.71;100449.56;5253253;33;33279;-85
2023/06/21 05:55:03;;;;;;;11.80;7.30;;;;;;;23.76;73.24;100455.31;5240097;33;33872;-86
2023/06/21 05:58:06;;;;;;;12.00;7.50;;;;;;;23.98;70.70;100454.34;5254407;33;33916;-86
2023/06/21 06:01:09;;;;;;;10.25;7.65;;;;;;;24.02;70.47;100446.41;5233493;33;33663;-87
2023/06/21 06:04:27;;;;;;;10.50;7.55;;;;;;;24.10;70.01;100443.13;5245533;33;33742;-86
2023/06/21 06:07:29;;;;;;;10.63;7.50;;;;;;;24.20;70.50;100435.78;5246084;33;33357;-86
2023/06/21 06:10:32;;;;;;;9.68;7.28;;;;;;;24.23;70.95;100444.59;5247877;33;34004;-86
2023/06/21 06:13:35;;;;;;;11.57;7.10;;;;;;;24.30;69.69;100447.94;5253554;33;33897;-86
2023/06/21 06:16:39;;;;;;;11.85;7.30;;;;;;;24.54;69.65;100442.84;5254084;33;33922;-84
2023/06/21 06:19:41;;;;;;;9.45;6.93;;;;;;;24.52;69.05;100440.37;5252590;33;33490;-86
2023/06/21 06:22:45;;;;;;;10.52;7.35;;;;;;;24.73;69.90;100435.75;5229510;33;33444;-86
2023/06/21 06:25:48;;;;;;;12.00;7.30;;;;;;;24.89;68.11;100442.12;5240634;33;33395;-86
2023/06/21 06:28:52;;;;;;;11.57;7.37;;;;;;;24.97;68.50;100447.09;5240605;33;33867;-86
2023/06/21 06:31:55;;;;;;;10.00;7.20;;;;;;;25.03;68.19;100446.00;5230589;33;33483;-86
2023/06/21 06:34:58;;;;;;;11.23;7.87;;;;;;;25.22;66.90;100453.81;5242755;33;33861;-87
2023/06/21 06:38:01;;;;;;;13.65;7.70;;;;;;;25.40;66.70;100447.75;5257788;33;34877;-85
2023/06/21 06:41:04;;;;;;;10.88;7.22;;;;;;;25.54;66.04;100437.03;5243734;33;33811;-86
2023/06/21 06:44:07;;;;;;;9.18;7.05;;;;;;;25.62;66.00;100430.94;5230642;33;34741;-86
2023/06/21 06:47:11;;;;;;;11.25;7.80;;;;;;;25.66;65.03;100439.50;5230974;33;34037;-86
2023/06/21 06:50:14;;;;;;;14.90;7.90;;;;;;;25.61;64.92;100429.28;5237490;33;35523;-86
2023/06/21 06:53:17;;;;;;;10.77;7.72;;;;;;;25.91;65.28;100439.47;5245701;33;34249;-86
2023/06/21 06:56:19;;;;;;;10.02;7.68;;;;;;;25.87;63.44;100434.81;5243175;33;34145;-86
2023/06/21 06:59:23;;;;;;;10.05;7.47;;;;;;;25.94;63.38;100438.91;5253962;33;33838;-86
2023/06/21 07:02:28;;;;;;;10.05;7.87;;;;;;;25.75;65.51;100438.66;5242165;33;33567;-86
2023/06/21 07:05:35;;;;;;;11.18;8.18;;;;;;;25.81;67.08;100436.72;5241625;33;34065;-86
2023/06/21 07:08:42;;;;;;;11.85;7.87;;;;;;;26.12;64.65;100434.78;5254370;33;33660;-90
2023/06/21 07:11:45;;;;;;;11.95;7.68;;;;;;;26.49;63.53;100435.47;5233501;33;34173;-90
2023/06/21 07:14:48;;;;;;;11.15;7.75;;;;;;;26.66;63.73;100438.72;5244139;33;34745;-86
2023/06/21 07:17:51;;;;;;;11.25;7.87;;;;;;;27.02;62.54;100444.06;5253339;33;33858;-87
2023/06/21 07:20:54;;;;;;;11.20;7.85;;;;;;;27.14;62.06;100439.84;5259580;33;35428;-87
2023/06/21 07:23:57;;;;;;;10.25;7.87;;;;;;;27.31;60.26;100433.91;5246080;33;34468;-86
2023/06/21 07:27:00;;;;;;;10.63;7.65;;;;;;;27.48;60.13;100436.28;5232406;33;33878;-86
2023/06/21 07:30:05;;;;;;;9.80;7.85;;;;;;;27.61;58.54;100431.19;5230958;33;33522;-86
2023/06/21 07:33:08;;;;;;;12.73;7.40;;;;;;;27.67;58.87;100432.78;5242588;33;33497;-87
2023/06/21 07:36:12;;;;;;;13.30;7.60;;;;;;;27.79;59.95;100427.75;5249543;33;33937;-86
2023/06/21 07:39:14;;;;;;;12.68;7.87;;;;;;;27.94;56.45;100422.06;5236654;33;34111;-87
2023/06/21 07:42:17;;;;;;;11.52;7.87;;;;;;;27.88;57.23;100425.19;5242399;33;34785;-86
2023/06/21 07:45:23;;;;;;;10.38;7.45;;;;;;;27.88;57.68;100428.75;5242138;33;33370;-86
2023/06/21 07:48:27;;;;;;;11.63;7.65;;;;;;;28.11;58.04;100424.38;5243011;33;33938;-86
2023/06/21 07:51:30;;;;;;;10.27;6.85;;;;;;;28.31;57.09;100431.59;5242402;33;33629;-86
2023/06/21 07:54:33;;;;;;;11.55;7.53;;;;;;;28.57;55.85;100425.78;5244308;33;33852;-86
2023/06/21 07:57:36;;;;;;;11.85;8.00;;;;;;;28.75;54.83;100422.19;5230819;33;33865;-86
2023/06/21 08:00:39;;;;;;;8.75;7.55;;;;;;;28.83;55.11;100423.50;5242166;33;33675;-86
2023/06/21 08:03:42;;;;;;;11.63;7.20;;;;;;;29.12;53.30;100421.41;5245533;33;34966;-86
2023/06/21 08:06:45;;;;;;;8.88;7.40;;;;;;;29.51;53.00;100420.22;5234184;33;35148;-86
2023/06/21 08:09:48;;;;;;;9.93;7.18;;;;;;;29.77;52.11;100412.31;5260994;33;33620;-86
2023/06/21 08:12:51;;;;;;;12.02;7.68;;;;;;;30.12;50.17;100409.97;5245969;33;33765;-86
2023/06/21 08:15:54;;;;;;;11.05;6.82;;;;;;;30.23;50.01;100405.09;5234468;33;33839;-86
2023/06/21 08:18:57;;;;;;;11.18;6.93;;;;;;;30.23;49.74;100400.34;5244074;33;34854;-87
2023/06/21 08:22:00;;;;;;;10.25;7.62;;;;;;;30.54;49.44;100407.19;5270498;33;35377;-87
2023/06/21 08:25:03;;;;;;;9.30;7.22;;;;;;;30.65;48.15;100422.53;5244921;33;34179;-86
2023/06/21 08:28:06;;;;;;;9.18;7.40;;;;;;;30.65;49.14;100425.31;5231886;33;33920;-86
2023/06/21 08:31:08;;;;;;;10.32;7.53;;;;;;;30.94;48.53;100428.56;5231824;33;34465;-86
2023/06/21 08:34:11;;;;;;;11.10;7.10;;;;;;;31.54;46.85;100432.19;5243049;33;34071;-86
2023/06/21 08:37:14;;;;;;;11.30;8.00;;;;;;;31.52;45.80;100435.28;5242079;33;33541;-86
2023/06/21 08:40:18;;;;;;;9.32;7.07;;;;;;;31.82;45.42;100430.84;5230417;33;33368;-86
2023/06/21 08:43:21;;;;;;;12.23;7.43;;;;;;;31.79;45.13;100431.50;5241548;33;34817;-86
2023/06/21 08:46:25;;;;;;;11.50;7.30;;;;;;;32.32;44.98;100438.16;5241604;33;34330;-86
2023/06/21 08:49:29;;;;;;;10.00;7.00;;;;;;;32.40;44.73;100439.34;5241494;33;33513;-86
2023/06/21 08:52:34;;;;;;;10.77;6.65;;;;;;;32.54;43.51;100442.84;5239818;33;33896;-86
2023/06/21 08:55:38;;;;;;;10.43;6.53;;;;;;;32.54;42.17;100448.44;5241413;33;33985;-86
2023/06/21 08:59:14;;;;;;;10.55;6.80;;;;;;;32.81;41.97;100440.94;5241451;33;34736;-86
2023/06/21 09:03:01;;;;;;;8.02;6.37;;;;;;;32.66;42.10;100448.62;5232339;33;34741;-88
2023/06/21 09:06:13;;;;;;;9.43;7.03;;;;;;;32.76;42.36;100441.91;5247901;34;33769;-85
2023/06/21 09:09:16;;;;;;;10.85;7.28;;;;;;;32.78;40.99;100441.59;5236970;34;33828;-85
2023/06/21 09:12:20;;;;;;;9.52;7.05;;;;;;;32.60;41.25;100437.94;5237169;34;34727;-85
2023/06/21 09:15:26;;;;;;;9.80;7.68;;;;;;;32.54;41.52;100444.81;5224948;34;33779;-85
2023/06/21 09:18:35;;;;;;;9.20;7.22;;;;;;;32.45;41.76;100439.22;5248914;33;34365;-86
2023/06/21 09:21:42;;;;;;;8.05;6.80;;;;;;;32.38;41.40;100431.31;5253881;33;33647;-86
2023/06/21 09:24:45;;;;;;;12.10;6.90;;;;;;;32.74;41.02;100425.50;5253517;33;33783;-86
2023/06/21 09:27:48;;;;;;;11.38;6.95;;;;;;;33.17;40.95;100421.97;5241483;33;33896;-86
2023/06/21 09:30:51;;;;;;;9.20;6.95;;;;;;;33.41;39.82;100424.22;5255103;33;33787;-86
2023/06/21 09:33:55;;;;;;;10.48;7.20;;;;;;;34.01;38.60;100425.25;5254320;33;34700;-86
2023/06/21 09:36:58;;;;;;;11.05;7.00;;;;;;;34.50;37.85;100422.91;5255953;33;34680;-86
2023/06/21 09:40:03;;;;;;;10.63;6.97;;;;;;;34.51;37.24;100430.13;5230245;33;34039;-86
2023/06/21 09:43:06;;;;;;;8.02;6.60;;;;;;;34.91;36.25;100432.53;5241401;33;33806;-86
2023/06/21 09:46:11;;;;;;;8.80;6.70;;;;;;;34.26;37.83;100428.31;5241125;33;33901;-86
2023/06/21 09:49:16;;;;;;;7.50;6.57;;;;;;;33.83;38.84;100432.06;5254188;33;33779;-86
2023/06/21 09:52:22;;;;;;;8.13;6.60;;;;;;;33.68;39.44;100438.19;5244773;33;33497;-86
2023/06/21 09:55:25;;;;;;;9.73;6.12;;;;;;;33.36;39.96;100443.13;5271620;33;34796;-86
2023/06/21 09:58:31;;;;;;;7.70;6.90;;;;;;;33.14;41.01;100431.00;5258590;33;34788;-86
2023/06/21 10:01:40;;;;;;;10.18;6.75;;;;;;;33.94;40.45;100435.31;5256079;33;34688;-85
2023/06/21 10:04:44;;;;;;;10.07;7.43;;;;;;;34.71;38.56;100436.94;5258475;33;34062;-86
2023/06/21 10:07:47;;;;;;;8.32;6.72;;;;;;;34.47;39.23;100439.53;5245966;33;33859;-85
2023/06/21 10:10:50;;;;;;;8.35;7.20;;;;;;;34.18;39.45;100437.53;5243686;33;34078;-86
2023/06/21 10:13:54;;;;;;;7.82;6.57;;;;;;;34.30;39.74;100437.66;5258157;33;33494;-88
2023/06/21 10:16:57;;;;;;;8.52;6.37;;;;;;;34.30;39.10;100434.84;5223369;34;34162;-89
2023/06/21 10:20:01;;;;;;;12.00;7.32;;;;;;;34.37;39.20;100426.78;5235775;34;34896;-90
2023/06/21 10:23:07;;;;;;;10.95;7.15;;;;;;;33.99;40.37;100427.56;5211879;34;33589;-85
2023/06/21 10:26:14;;;;;;;8.93;6.35;;;;;;;33.86;40.10;100436.97;5235434;34;34029;-86
2023/06/21 10:29:18;;;;;;;9.43;6.43;;;;;;;33.71;40.71;100427.16;5240821;34;33487;-86
2023/06/21 10:32:21;;;;;;;9.10;7.12;;;;;;;33.70;40.62;100433.91;5226385;34;34038;-86
2023/06/21 10:35:27;;;;;;;8.05;6.50;;;;;;;34.19;40.54;100430.78;5213111;34;33921;-86
2023/06/21 10:38:50;;;;;;;8.30;6.62;;;;;;;34.73;39.26;100442.22;5234408;34;34057;-86
2023/06/21 10:41:53;;;;;;;8.13;6.47;;;;;;;34.19;40.25;100444.75;5235679;34;33425;-85
2023/06/21 10:44:58;;;;;;;8.43;7.10;;;;;;;33.68;41.42;100443.75;5222698;34;33805;-86
2023/06/21 10:48:03;;;;;;;8.57;6.85;;;;;;;33.74;42.10;100448.84;5235727;33;33818;-86
2023/06/21 10:51:06;;;;;;;7.82;6.47;;;;;;;33.30;42.20;100450.03;5232696;33;33889;-86
2023/06/21 10:54:09;;;;;;;7.15;6.47;;;;;;;32.99;42.41;100450.97;5236191;33;33369;-86
2023/06/21 10:57:17;;;;;;;12.00;6.95;;;;;;;32.67;42.50;100455.84;5226155;33;33901;-85
2023/06/21 11:00:25;;;;;;;11.35;7.18;;;;;;;32.52;43.57;100465.47;5245997;33;34123;-87
2023/06/21 11:03:29;;;;;;;10.23;7.03;;;;;;;32.30;44.31;100460.78;5247956;33;33443;-86
2023/06/21 11:06:36;;;;;;;8.65;6.78;;;;;;;32.20;45.02;100455.47;5239058;34;33941;-86
2023/06/21 11:09:42;;;;;;;8.95;6.65;;;;;;;31.88;45.25;100455.78;5249479;33;33989;-86
2023/06/21 11:12:48;;;;;;;8.85;6.93;;;;;;;31.65;45.30;100452.22;5256687;33;34208;-85
2023/06/21 11:15:50;;;;;;;7.45;6.50;;;;;;;31.53;46.60;100461.13;5243737;33;33911;-86
2023/06/21 11:18:59;;;;;;;10.30;6.80;;;;;;;31.44;47.67;100463.03;5231608;33;33752;-86
2023/06/21 11:22:15;;;;;;;9.57;7.87;;;;;;;31.94;46.60;100460.97;5259723;33;33891;-86
2023/06/21 11:25:18;;;;;;;8.82;6.78;;;;;;;32.89;44.54;100466.03;5258677;33;33909;-86
2023/06/21 11:28:23;;;;;;;9.98;7.00;;;;;;;33.91;42.94;100461.94;5243339;33;33562;-85
2023/06/21 11:31:26;;;;;;;10.57;6.85;;;;;;;34.94;40.21;100459.81;5243022;33;33631;-85
2023/06/21 11:34:30;;;;;;;7.55;6.62;;;;;;;35.93;38.14;100455.50;5232737;33;34716;-86
2023/06/21 11:37:44;;;;;;;17.08;6.70;;;;;;;36.50;38.72;100454.63;5259282;33;33754;-87
2023/06/21 11:40:47;;;;;;;11.48;6.85;;;;;;;37.47;35.94;100445.53;5258135;33;34734;-88
2023/06/21 11:43:56;;;;;;;7.03;6.32;;;;;;;36.59;36.30;100454.53;5243678;33;33838;-85
2023/06/21 11:47:17;;;;;;;8.57;6.97;;;;;;;36.39;37.45;100447.03;5243042;33;34176;-85
2023/06/21 11:50:20;;;;;;;7.18;5.93;;;;;;;36.24;37.58;100443.78;5243194;33;34265;-85
2023/06/21 11:53:26;;;;;;;8.98;6.90;;;;;;;35.62;38.06;100434.41;5242910;33;35103;-85
2023/06/21 11:56:31;;;;;;;8.68;6.68;;;;;;;35.27;39.81;100433.09;5256025;33;33308;-85
2023/06/21 11:59:36;;;;;;;7.60;6.10;;;;;;;34.87;39.99;100427.94;5247624;33;35673;-85
2023/06/21 12:02:39;;;;;;;8.02;6.75;;;;;;;34.73;39.78;100422.63;5246221;33;34297;-85
2023/06/21 12:06:06;;;;;;;7.93;6.20;;;;;;;36.73;37.02;100421.31;5259478;33;33791;-85
2023/06/21 12:09:09;;;;;;;6.80;6.10;;;;;;;39.83;30.66;100415.31;5251848;33;34801;-85
2023/06/21 12:12:12;;;;;;;9.57;6.28;;;;;;;41.55;28.22;100409.34;5245829;33;33614;-85
2023/06/21 12:15:14;;;;;;;9.15;5.68;;;;;;;42.35;27.25;100406.03;5234892;33;34145;-85
2023/06/21 12:18:18;;;;;;;6.40;5.78;;;;;;;43.14;26.59;100412.16;5243188;33;33897;-85
2023/06/21 12:21:21;;;;;;;8.00;6.20;;;;;;;43.65;25.42;100402.59;5256583;33;34619;-85
2023/06/21 12:24:26;;;;;;;7.40;5.70;;;;;;;45.09;23.67;100406.06;5242975;33;33866;-85
2023/06/21 12:27:29;;;;;;;5.37;4.90;;;;;;;45.43;23.70;100398.59;5243317;33;33909;-85
2023/06/21 12:30:32;;;;;;;6.15;5.55;;;;;;;44.89;22.69;100408.59;5254521;33;33610;-85
2023/06/21 12:33:37;;;;;;;7.93;5.68;;;;;;;44.83;23.30;100407.41;5249258;33;35134;-86
2023/06/21 12:36:45;;;;;;;7.60;6.07;;;;;;;44.74;23.82;100416.34;5268594;33;35225;-86
2023/06/21 12:39:49;;;;;;;7.03;5.70;;;;;;;45.48;22.73;100411.53;5255917;33;33565;-86
2023/06/21 12:42:53;;;;;;;11.77;5.35;;;;;;;44.20;23.69;100399.41;5254610;33;33934;-86
2023/06/21 12:45:55;;;;;;;6.25;5.45;;;;;;;44.60;22.68;100405.81;5242474;33;33729;-86
2023/06/21 12:48:58;;;;;;;6.35;5.30;;;;;;;44.41;23.11;100406.28;5224011;34;33511;-86
2023/06/21 12:52:02;;;;;;;10.48;6.00;;;;;;;44.29;23.76;100404.62;5241720;33;34400;-86
2023/06/21 12:55:15;;;;;;;7.22;5.57;;;;;;;45.19;22.72;100397.50;5253318;33;34605;-86
2023/06/21 12:58:21;;;;;;;6.25;5.32;;;;;;;45.65;23.60;100393.56;5251101;33;33873;-90
2023/06/21 13:01:24;;;;;;;6.28;5.68;;;;;;;45.30;23.11;100390.94;5254432;33;34062;-90
2023/06/21 13:04:27;;;;;;;9.02;5.68;;;;;;;46.34;21.28;100377.56;5241916;33;33851;-90
2023/06/21 13:07:31;;;;;;;8.02;6.15;;;;;;;46.20;21.73;100374.03;5240517;33;33488;-87
2023/06/21 13:10:33;;;;;;;10.50;6.10;;;;;;;46.35;21.82;100369.81;5241258;33;33572;-86
2023/06/21 13:13:36;;;;;;;6.65;5.90;;;;;;;46.28;21.80;100375.56;5241543;33;33343;-86
2023/06/21 13:16:39;;;;;;;8.52;6.00;;;;;;;46.02;21.85;100371.34;5254222;33;33979;-86
2023/06/21 13:19:42;;;;;;;7.90;6.07;;;;;;;45.88;21.58;100378.75;5234072;33;34178;-87
2023/06/21 13:22:46;;;;;;;8.27;5.85;;;;;;;44.85;22.80;100368.84;5254794;33;34019;-86
2023/06/21 13:25:50;;;;;;;9.23;6.03;;;;;;;44.69;22.75;100372.09;5244368;33;34412;-85
2023/06/21 13:28:53;;;;;;;9.10;5.85;;;;;;;45.08;22.81;100358.94;5241464;33;34022;-85
2023/06/21 13:31:56;;;;;;;7.45;5.55;;;;;;;45.96;21.92;100368.16;5227681;33;34816;-85
2023/06/21 13:34:59;;;;;;;6.30;5.60;;;;;;;44.75;22.76;100367.62;5253343;33;35304;-85
2023/06/21 13:38:03;;;;;;;8.02;6.03;;;;;;;46.01;21.55;100364.03;5228931;33;34728;-85
2023/06/21 13:41:07;;;;;;;6.95;5.80;;;;;;;46.92;20.44;100354.06;5253006;33;34016;-85
2023/06/21 13:44:10;;;;;;;5.85;5.25;;;;;;;46.89;20.38;100352.09;5230024;33;34992;-85
2023/06/21 13:47:13;;;;;;;6.22;5.62;;;;;;;47.01;20.69;100349.47;5240950;33;33607;-85
2023/06/21 13:50:16;;;;;;;8.77;5.30;;;;;;;46.95;20.30;100341.81;5223038;34;33990;-85
2023/06/21 13:53:21;;;;;;;7.18;5.57;;;;;;;47.08;20.91;100340.03;5217618;33;35399;-85
2023/06/21 13:56:24;;;;;;;5.62;5.05;;;;;;;45.90;21.41;100338.53;5240270;33;34602;-85
2023/06/21 13:59:27;;;;;;;6.72;4.90;;;;;;;44.76;21.89;100351.44;5240667;33;33845;-85
2023/06/21 14:02:30;;;;;;;7.18;4.78;;;;;;;44.36;22.99;100343.00;5230693;33;33897;-85
2023/06/21 14:05:34;;;;;;;5.32;4.80;;;;;;;43.49;23.53;100340.56;5229091;34;35001;-85
2023/06/21 14:08:37;;;;;;;5.53;5.03;;;;;;;42.24;24.95;100342.88;5242347;33;33455;-85
2023/06/21 14:11:40;;;;;;;5.78;5.12;;;;;;;40.88;25.72;100348.00;5231944;33;33828;-85
2023/06/21 14:14:43;;;;;;;6.65;5.37;;;;;;;39.32;27.25;100342.31;5234867;33;33651;-85
2023/06/21 14:17:46;;;;;;;8.63;4.97;;;;;;;38.31;29.78;100346.97;5244947;33;35392;-85
2023/06/21 14:20:48;;;;;;;6.47;5.55;;;;;;;38.15;30.08;100354.63;5237630;33;34140;-85
2023/06/21 14:23:51;;;;;;;6.60;5.12;;;;;;;38.18;30.03;100360.34;5240925;33;34619;-85
2023/06/21 14:26:54;;;;;;;6.10;5.50;;;;;;;38.36;29.47;100357.94;5240411;33;33785;-85
2023/06/21 14:30:01;;;;;;;6.40;5.70;;;;;;;37.61;30.79;100364.50;5239709;33;33714;-85
2023/06/21 14:33:04;;;;;;;6.60;5.22;;;;;;;37.02;32.28;100370.88;5252616;33;33957;-85
2023/06/21 14:36:10;;;;;;;8.45;5.43;;;;;;;36.84;32.96;100371.12;5240941;33;33857;-85
2023/06/21 14:39:13;;;;;;;8.13;6.15;;;;;;;36.42;34.40;100376.22;5224247;34;34892;-85
2023/06/21 14:42:16;;;;;;;8.70;5.78;;;;;;;35.99;35.49;100369.22;5235636;33;33755;-85
2023/06/21 14:45:18;;;;;;;6.85;6.00;;;;;;;35.94;35.57;100381.47;5245968;33;245880;-85
2023/06/21 14:48:22;;;;;;;10.68;6.55;;;;;;;35.51;36.45;100384.75;5227830;33;34636;-85
2023/06/21 14:51:25;;;;;;;7.57;6.10;;;;;;;34.99;37.85;100384.06;5252624;33;34776;-85
2023/06/21 14:54:28;;;;;;;8.15;6.15;;;;;;;35.14;37.08;100388.25;5253225;33;33475;-85
2023/06/21 14:57:31;;;;;;;6.85;5.40;;;;;;;35.23;37.32;100395.75;5252529;33;34746;-85
2023/06/21 15:00:34;;;;;;;7.62;6.12;;;;;;;34.87;37.67;100398.00;5252038;33;35607;-85
2023/06/21 15:03:36;;;;;;;7.57;5.90;;;;;;;34.42;38.06;100390.22;5252876;33;33845;-85
2023/06/21 15:06:40;;;;;;;8.20;5.62;;;;;;;34.42;39.12;100390.22;5253310;33;34045;-85
2023/06/21 15:09:45;;;;;;;11.55;6.55;;;;;;;34.36;38.20;100399.97;5240716;33;33775;-85
2023/06/21 15:12:48;;;;;;;9.68;6.18;;;;;;;34.48;37.85;100391.66;5240658;33;34463;-88
2023/06/21 15:16:03;;;;;;;6.37;5.30;;;;;;;34.39;38.41;100388.09;5256191;33;34417;-86
2023/06/21 15:19:06;;;;;;;7.60;5.78;;;;;;;34.28;37.61;100392.44;5238003;33;35084;-86
2023/06/21 15:22:09;;;;;;;7.82;5.35;;;;;;;34.19;37.47;100383.28;5240548;33;34040;-86
2023/06/21 15:25:12;;;;;;;9.60;6.25;;;;;;;33.79;38.35;100375.22;5252953;33;33654;-85
2023/06/21 15:28:14;;;;;;;6.55;5.75;;;;;;;33.67;38.52;100370.34;5240158;33;34981;-86
2023/06/21 15:31:18;;;;;;;6.85;6.10;;;;;;;33.66;38.74;100362.28;5240475;33;34662;-85
2023/06/21 15:34:20;;;;;;;8.18;6.10;;;;;;;33.64;39.25;100357.88;5230995;33;34091;-85
2023/06/21 15:37:23;;;;;;;7.85;5.85;;;;;;;33.48;39.86;100359.53;5242472;33;34819;-86
2023/06/21 15:40:26;;;;;;;6.97;5.95;;;;;;;33.40;41.31;100352.78;5242117;33;33631;-86
2023/06/21 15:43:30;;;;;;;7.07;5.72;;;;;;;33.28;40.65;100365.81;5242655;33;33944;-86
2023/06/21 15:46:33;;;;;;;8.57;5.85;;;;;;;33.06;40.42;100367.66;5242114;33;34677;-85
2023/06/21 15:49:36;;;;;;;7.93;6.15;;;;;;;33.13;40.59;100367.94;5230995;33;34846;-85
2023/06/21 15:52:39;;;;;;;9.65;6.68;;;;;;;32.91;41.56;100376.50;5230585;33;33888;-85
2023/06/21 15:55:42;;;;;;;7.43;5.97;;;;;;;33.04;41.32;100377.50;5242031;33;33602;-85
